sensor_id;sensor_type;location;lat;lon;timestamp;temperature;humidity
4840;DHT22;2434;48.486;7.964;2023-05-10T00:01:39;15.90;88.90
4840;DHT22;2434;48.486;7.964;2023-05-10T00:04:07;15.90;88.90
4840;DHT22;2434;48.486;7.964;2023-05-10T00:06:35;15.90;88.70
4840;DHT22;2434;48.486;7.964;2023-05-10T00:09:04;15.90;88.00
4840;DHT22;2434;48.486;7.964;2023-05-10T00:11:33;15.90;88.00
4840;DHT22;2434;48.486;7.964;2023-05-10T00:14:01;15.90;87.90
4840;DHT22;2434;48.486;7.964;2023-05-10T00:16:29;15.80;87.40
4840;DHT22;2434;48.486;7.964;2023-05-10T00:18:58;15.80;87.50
4840;DHT22;2434;48.486;7.964;2023-05-10T00:21:26;15.80;87.70
4840;DHT22;2434;48.486;7.964;2023-05-10T00:23:55;15.70;87.60
4840;DHT22;2434;48.486;7.964;2023-05-10T00:26:24;15.70;87.70
4840;DHT22;2434;48.486;7.964;2023-05-10T00:28:54;15.70;87.90
4840;DHT22;2434;48.486;7.964;2023-05-10T00:31:23;15.70;87.80
4840;DHT22;2434;48.486;7.964;2023-05-10T00:33:51;15.70;87.80
4840;DHT22;2434;48.486;7.964;2023-05-10T00:36:20;15.70;87.60
4840;DHT22;2434;48.486;7.964;2023-05-10T00:38:48;15.60;88.00
4840;DHT22;2434;48.486;7.964;2023-05-10T00:41:17;15.60;87.90
4840;DHT22;2434;48.486;7.964;2023-05-10T00:43:47;15.60;88.20
4840;DHT22;2434;48.486;7.964;2023-05-10T00:46:16;15.60;88.30
4840;DHT22;2434;48.486;7.964;2023-05-10T00:48:44;15.60;88.80
4840;DHT22;2434;48.486;7.964;2023-05-10T00:51:13;15.60;89.20
4840;DHT22;2434;48.486;7.964;2023-05-10T00:53:41;15.60;89.20
4840;DHT22;2434;48.486;7.964;2023-05-10T00:56:10;15.50;89.40
4840;DHT22;2434;48.486;7.964;2023-05-10T00:58:39;15.50;89.30
4840;DHT22;2434;48.486;7.964;2023-05-10T01:01:09;15.50;89.10
4840;DHT22;2434;48.486;7.964;2023-05-10T01:03:39;15.50;89.40
4840;DHT22;2434;48.486;7.964;2023-05-10T01:06:08;15.50;89.60
4840;DHT22;2434;48.486;7.964;2023-05-10T01:08:38;15.50;89.80
4840;DHT22;2434;48.486;7.964;2023-05-10T01:11:06;15.50;89.60
4840;DHT22;2434;48.486;7.964;2023-05-10T01:13:37;15.50;89.50
4840;DHT22;2434;48.486;7.964;2023-05-10T01:16:06;15.50;89.40
4840;DHT22;2434;48.486;7.964;2023-05-10T01:18:38;15.40;88.70
4840;DHT22;2434;48.486;7.964;2023-05-10T01:21:17;15.40;88.20
4840;DHT22;2434;48.486;7.964;2023-05-10T01:24:09;15.40;88.30
4840;DHT22;2434;48.486;7.964;2023-05-10T01:27:07;15.40;87.70
4840;DHT22;2434;48.486;7.964;2023-05-10T01:30:02;15.40;88.00
4840;DHT22;2434;48.486;7.964;2023-05-10T01:32:48;15.30;88.20
4840;DHT22;2434;48.486;7.964;2023-05-10T01:35:30;15.30;88.40
4840;DHT22;2434;48.486;7.964;2023-05-10T01:38:04;15.30;88.70
4840;DHT22;2434;48.486;7.964;2023-05-10T01:40:40;15.20;88.60
4840;DHT22;2434;48.486;7.964;2023-05-10T01:43:14;15.20;87.70
4840;DHT22;2434;48.486;7.964;2023-05-10T01:45:50;15.10;88.30
4840;DHT22;2434;48.486;7.964;2023-05-10T01:48:23;15.10;88.40
4840;DHT22;2434;48.486;7.964;2023-05-10T01:50:52;15.10;88.50
4840;DHT22;2434;48.486;7.964;2023-05-10T01:53:21;15.10;88.70
4840;DHT22;2434;48.486;7.964;2023-05-10T01:55:52;15.10;89.50
4840;DHT22;2434;48.486;7.964;2023-05-10T01:58:25;15.10;88.60
4840;DHT22;2434;48.486;7.964;2023-05-10T02:00:55;15.20;88.60
4840;DHT22;2434;48.486;7.964;2023-05-10T02:03:27;15.10;88.50
4840;DHT22;2434;48.486;7.964;2023-05-10T02:05:57;15.10;88.90
4840;DHT22;2434;48.486;7.964;2023-05-10T02:08:27;15.10;88.60
4840;DHT22;2434;48.486;7.964;2023-05-10T02:10:57;15.10;88.50
4840;DHT22;2434;48.486;7.964;2023-05-10T02:13:27;15.00;88.10
4840;DHT22;2434;48.486;7.964;2023-05-10T02:15:57;15.00;89.00
4840;DHT22;2434;48.486;7.964;2023-05-10T02:18:28;15.00;89.20
4840;DHT22;2434;48.486;7.964;2023-05-10T02:20:58;15.00;89.40
4840;DHT22;2434;48.486;7.964;2023-05-10T02:23:28;15.00;89.50
4840;DHT22;2434;48.486;7.964;2023-05-10T02:25:57;15.00;89.70
4840;DHT22;2434;48.486;7.964;2023-05-10T02:28:28;15.00;90.50
4840;DHT22;2434;48.486;7.964;2023-05-10T02:30:57;15.00;89.70
4840;DHT22;2434;48.486;7.964;2023-05-10T02:33:28;15.10;89.60
4840;DHT22;2434;48.486;7.964;2023-05-10T02:35:58;15.10;89.70
4840;DHT22;2434;48.486;7.964;2023-05-10T02:38:27;15.10;90.00
4840;DHT22;2434;48.486;7.964;2023-05-10T02:40:56;15.20;90.00
4840;DHT22;2434;48.486;7.964;2023-05-10T02:43:25;15.20;89.70
4840;DHT22;2434;48.486;7.964;2023-05-10T02:45:55;15.20;89.60
4840;DHT22;2434;48.486;7.964;2023-05-10T02:48:24;15.20;90.10
4840;DHT22;2434;48.486;7.964;2023-05-10T02:50:55;15.20;89.10
4840;DHT22;2434;48.486;7.964;2023-05-10T02:53:30;15.20;89.40
4840;DHT22;2434;48.486;7.964;2023-05-10T02:56:01;15.20;89.70
4840;DHT22;2434;48.486;7.964;2023-05-10T02:58:34;15.10;89.50
4840;DHT22;2434;48.486;7.964;2023-05-10T03:01:02;15.10;89.80
4840;DHT22;2434;48.486;7.964;2023-05-10T03:03:30;15.10;89.60
4840;DHT22;2434;48.486;7.964;2023-05-10T03:06:00;15.10;89.80
4840;DHT22;2434;48.486;7.964;2023-05-10T03:08:29;15.10;89.50
4840;DHT22;2434;48.486;7.964;2023-05-10T03:11:13;15.10;89.60
4840;DHT22;2434;48.486;7.964;2023-05-10T03:13:52;15.10;89.80
4840;DHT22;2434;48.486;7.964;2023-05-10T03:16:28;15.10;89.40
4840;DHT22;2434;48.486;7.964;2023-05-10T03:19:03;15.10;89.50
4840;DHT22;2434;48.486;7.964;2023-05-10T03:21:37;15.10;90.40
4840;DHT22;2434;48.486;7.964;2023-05-10T03:24:08;15.10;89.30
4840;DHT22;2434;48.486;7.964;2023-05-10T03:26:40;15.00;89.30
4840;DHT22;2434;48.486;7.964;2023-05-10T03:29:15;15.00;89.40
4840;DHT22;2434;48.486;7.964;2023-05-10T03:31:44;15.10;89.80
4840;DHT22;2434;48.486;7.964;2023-05-10T03:34:14;15.00;89.80
4840;DHT22;2434;48.486;7.964;2023-05-10T03:36:44;15.00;89.00
4840;DHT22;2434;48.486;7.964;2023-05-10T03:39:13;15.00;89.30
4840;DHT22;2434;48.486;7.964;2023-05-10T03:41:42;15.00;89.20
4840;DHT22;2434;48.486;7.964;2023-05-10T03:44:10;14.90;89.10
4840;DHT22;2434;48.486;7.964;2023-05-10T03:46:39;14.90;89.50
4840;DHT22;2434;48.486;7.964;2023-05-10T03:49:07;14.90;89.60
4840;DHT22;2434;48.486;7.964;2023-05-10T03:51:36;14.90;90.00
4840;DHT22;2434;48.486;7.964;2023-05-10T03:54:05;14.80;89.50
4840;DHT22;2434;48.486;7.964;2023-05-10T03:56:33;14.80;89.90
4840;DHT22;2434;48.486;7.964;2023-05-10T03:59:02;14.80;90.20
4840;DHT22;2434;48.486;7.964;2023-05-10T04:01:34;14.70;90.40
4840;DHT22;2434;48.486;7.964;2023-05-10T04:04:02;14.70;90.60
4840;DHT22;2434;48.486;7.964;2023-05-10T04:06:31;14.70;90.70
4840;DHT22;2434;48.486;7.964;2023-05-10T04:08:59;14.60;90.80
4840;DHT22;2434;48.486;7.964;2023-05-10T04:11:32;14.60;91.00
4840;DHT22;2434;48.486;7.964;2023-05-10T04:14:00;14.70;91.50
4840;DHT22;2434;48.486;7.964;2023-05-10T04:16:28;14.60;91.60
4840;DHT22;2434;48.486;7.964;2023-05-10T04:18:57;14.60;91.40
4840;DHT22;2434;48.486;7.964;2023-05-10T04:21:25;14.60;91.30
4840;DHT22;2434;48.486;7.964;2023-05-10T04:23:53;14.50;91.00
4840;DHT22;2434;48.486;7.964;2023-05-10T04:26:21;14.50;90.70
4840;DHT22;2434;48.486;7.964;2023-05-10T04:28:51;14.50;91.20
4840;DHT22;2434;48.486;7.964;2023-05-10T04:31:19;14.50;91.30
4840;DHT22;2434;48.486;7.964;2023-05-10T04:33:48;14.50;91.30
4840;DHT22;2434;48.486;7.964;2023-05-10T04:36:16;14.50;91.00
4840;DHT22;2434;48.486;7.964;2023-05-10T04:38:44;14.50;91.50
4840;DHT22;2434;48.486;7.964;2023-05-10T04:41:12;14.50;91.30
4840;DHT22;2434;48.486;7.964;2023-05-10T04:43:41;14.50;90.90
4840;DHT22;2434;48.486;7.964;2023-05-10T04:46:10;14.50;90.80
4840;DHT22;2434;48.486;7.964;2023-05-10T04:48:38;14.60;90.80
4840;DHT22;2434;48.486;7.964;2023-05-10T04:51:07;14.60;90.70
4840;DHT22;2434;48.486;7.964;2023-05-10T04:53:35;14.60;90.90
4840;DHT22;2434;48.486;7.964;2023-05-10T04:56:03;14.60;90.80
4840;DHT22;2434;48.486;7.964;2023-05-10T04:58:32;14.60;90.80
4840;DHT22;2434;48.486;7.964;2023-05-10T05:01:05;14.60;91.00
4840;DHT22;2434;48.486;7.964;2023-05-10T05:03:35;14.60;90.90
4840;DHT22;2434;48.486;7.964;2023-05-10T05:06:04;14.60;91.50
4840;DHT22;2434;48.486;7.964;2023-05-10T05:08:32;14.60;90.30
4840;DHT22;2434;48.486;7.964;2023-05-10T05:11:00;14.60;90.30
4840;DHT22;2434;48.486;7.964;2023-05-10T05:13:28;14.60;90.40
4840;DHT22;2434;48.486;7.964;2023-05-10T05:15:56;14.60;90.70
4840;DHT22;2434;48.486;7.964;2023-05-10T05:18:25;14.60;90.80
4840;DHT22;2434;48.486;7.964;2023-05-10T05:20:54;14.60;90.80
4840;DHT22;2434;48.486;7.964;2023-05-10T05:23:22;14.60;91.20
4840;DHT22;2434;48.486;7.964;2023-05-10T05:25:51;14.60;91.40
4840;DHT22;2434;48.486;7.964;2023-05-10T05:28:20;14.60;91.70
4840;DHT22;2434;48.486;7.964;2023-05-10T05:30:48;14.60;91.80
4840;DHT22;2434;48.486;7.964;2023-05-10T05:33:16;14.50;92.10
4840;DHT22;2434;48.486;7.964;2023-05-10T05:35:45;14.50;92.60
4840;DHT22;2434;48.486;7.964;2023-05-10T05:38:18;14.50;92.60
4840;DHT22;2434;48.486;7.964;2023-05-10T05:40:47;14.60;92.80
4840;DHT22;2434;48.486;7.964;2023-05-10T05:43:15;14.60;92.90
4840;DHT22;2434;48.486;7.964;2023-05-10T05:45:43;14.60;93.00
4840;DHT22;2434;48.486;7.964;2023-05-10T05:48:12;14.50;93.40
4840;DHT22;2434;48.486;7.964;2023-05-10T05:50:40;14.50;93.40
4840;DHT22;2434;48.486;7.964;2023-05-10T05:53:08;14.50;93.30
4840;DHT22;2434;48.486;7.964;2023-05-10T05:55:38;14.50;93.30
4840;DHT22;2434;48.486;7.964;2023-05-10T05:58:06;14.50;93.30
4840;DHT22;2434;48.486;7.964;2023-05-10T06:00:35;14.60;93.00
4840;DHT22;2434;48.486;7.964;2023-05-10T06:03:03;14.60;93.70
4840;DHT22;2434;48.486;7.964;2023-05-10T06:05:31;14.60;92.90
4840;DHT22;2434;48.486;7.964;2023-05-10T06:08:00;14.60;93.20
4840;DHT22;2434;48.486;7.964;2023-05-10T06:10:28;14.60;93.30
4840;DHT22;2434;48.486;7.964;2023-05-10T06:12:58;14.60;93.70
4840;DHT22;2434;48.486;7.964;2023-05-10T06:15:27;14.50;94.00
4840;DHT22;2434;48.486;7.964;2023-05-10T06:17:55;14.60;93.90
4840;DHT22;2434;48.486;7.964;2023-05-10T06:20:23;14.60;94.10
4840;DHT22;2434;48.486;7.964;2023-05-10T06:22:51;14.60;94.00
4840;DHT22;2434;48.486;7.964;2023-05-10T06:25:20;14.60;93.90
4840;DHT22;2434;48.486;7.964;2023-05-10T06:27:48;14.60;94.20
4840;DHT22;2434;48.486;7.964;2023-05-10T06:30:21;14.60;94.70
4840;DHT22;2434;48.486;7.964;2023-05-10T06:32:54;14.60;95.10
4840;DHT22;2434;48.486;7.964;2023-05-10T06:35:23;14.50;95.20
4840;DHT22;2434;48.486;7.964;2023-05-10T06:37:51;14.60;95.70
4840;DHT22;2434;48.486;7.964;2023-05-10T06:40:19;14.60;95.70
4840;DHT22;2434;48.486;7.964;2023-05-10T06:42:48;14.60;95.20
4840;DHT22;2434;48.486;7.964;2023-05-10T06:45:17;14.60;94.70
4840;DHT22;2434;48.486;7.964;2023-05-10T06:47:47;14.60;94.40
4840;DHT22;2434;48.486;7.964;2023-05-10T06:50:15;14.60;93.60
4840;DHT22;2434;48.486;7.964;2023-05-10T06:52:43;14.60;93.10
4840;DHT22;2434;48.486;7.964;2023-05-10T06:55:12;14.60;93.10
4840;DHT22;2434;48.486;7.964;2023-05-10T06:57:40;14.60;93.50
4840;DHT22;2434;48.486;7.964;2023-05-10T07:00:08;14.60;93.50
4840;DHT22;2434;48.486;7.964;2023-05-10T07:02:37;14.60;93.20
4840;DHT22;2434;48.486;7.964;2023-05-10T07:05:08;14.60;93.00
4840;DHT22;2434;48.486;7.964;2023-05-10T07:07:36;14.60;92.40
4840;DHT22;2434;48.486;7.964;2023-05-10T07:10:05;14.60;92.50
4840;DHT22;2434;48.486;7.964;2023-05-10T07:12:33;14.60;93.00
4840;DHT22;2434;48.486;7.964;2023-05-10T07:15:02;14.60;93.00
4840;DHT22;2434;48.486;7.964;2023-05-10T07:17:30;14.60;92.60
4840;DHT22;2434;48.486;7.964;2023-05-10T07:20:00;14.60;91.90
4840;DHT22;2434;48.486;7.964;2023-05-10T07:22:29;14.60;92.20
4840;DHT22;2434;48.486;7.964;2023-05-10T07:24:58;14.70;92.30
4840;DHT22;2434;48.486;7.964;2023-05-10T07:27:26;14.70;93.10
4840;DHT22;2434;48.486;7.964;2023-05-10T07:29:54;14.70;93.40
4840;DHT22;2434;48.486;7.964;2023-05-10T07:32:23;14.80;94.10
4840;DHT22;2434;48.486;7.964;2023-05-10T07:34:51;14.80;93.20
4840;DHT22;2434;48.486;7.964;2023-05-10T07:37:20;14.80;92.80
4840;DHT22;2434;48.486;7.964;2023-05-10T07:39:50;14.80;90.50
4840;DHT22;2434;48.486;7.964;2023-05-10T07:42:18;14.80;91.00
4840;DHT22;2434;48.486;7.964;2023-05-10T07:44:46;14.80;90.90
4840;DHT22;2434;48.486;7.964;2023-05-10T07:47:14;14.80;90.30
4840;DHT22;2434;48.486;7.964;2023-05-10T07:49:43;14.80;89.90
4840;DHT22;2434;48.486;7.964;2023-05-10T07:52:11;14.90;89.60
4840;DHT22;2434;48.486;7.964;2023-05-10T07:54:40;14.90;89.90
4840;DHT22;2434;48.486;7.964;2023-05-10T07:57:10;14.90;90.30
4840;DHT22;2434;48.486;7.964;2023-05-10T07:59:41;14.90;90.70
4840;DHT22;2434;48.486;7.964;2023-05-10T08:02:09;15.00;90.30
4840;DHT22;2434;48.486;7.964;2023-05-10T08:04:37;15.00;90.50
4840;DHT22;2434;48.486;7.964;2023-05-10T08:07:06;15.00;91.00
4840;DHT22;2434;48.486;7.964;2023-05-10T08:09:34;14.90;89.80
4840;DHT22;2434;48.486;7.964;2023-05-10T08:12:04;15.00;89.50
4840;DHT22;2434;48.486;7.964;2023-05-10T08:14:34;15.00;89.10
4840;DHT22;2434;48.486;7.964;2023-05-10T08:17:03;15.00;89.50
4840;DHT22;2434;48.486;7.964;2023-05-10T08:19:32;15.10;88.90
4840;DHT22;2434;48.486;7.964;2023-05-10T08:22:00;15.00;88.10
4840;DHT22;2434;48.486;7.964;2023-05-10T08:24:28;15.00;88.30
4840;DHT22;2434;48.486;7.964;2023-05-10T08:26:56;15.00;89.40
4840;DHT22;2434;48.486;7.964;2023-05-10T08:29:25;15.10;88.90
4840;DHT22;2434;48.486;7.964;2023-05-10T08:32:00;15.10;89.10
4840;DHT22;2434;48.486;7.964;2023-05-10T08:34:28;15.10;86.90
4840;DHT22;2434;48.486;7.964;2023-05-10T08:36:57;15.10;86.20
4840;DHT22;2434;48.486;7.964;2023-05-10T08:39:26;15.20;85.30
4840;DHT22;2434;48.486;7.964;2023-05-10T08:42:00;15.20;84.30
4840;DHT22;2434;48.486;7.964;2023-05-10T08:44:30;15.20;74.90
4840;DHT22;2434;48.486;7.964;2023-05-10T08:47:04;15.10;74.20
4840;DHT22;2434;48.486;7.964;2023-05-10T08:49:33;14.90;76.30
4840;DHT22;2434;48.486;7.964;2023-05-10T08:52:03;14.80;78.60
4840;DHT22;2434;48.486;7.964;2023-05-10T08:54:32;14.70;80.60
4840;DHT22;2434;48.486;7.964;2023-05-10T08:57:01;14.60;81.50
4840;DHT22;2434;48.486;7.964;2023-05-10T08:59:30;14.60;82.40
4840;DHT22;2434;48.486;7.964;2023-05-10T09:02:01;14.60;82.30
4840;DHT22;2434;48.486;7.964;2023-05-10T09:04:29;14.60;83.80
4840;DHT22;2434;48.486;7.964;2023-05-10T09:06:58;14.60;86.40
4840;DHT22;2434;48.486;7.964;2023-05-10T09:09:27;14.60;86.50
4840;DHT22;2434;48.486;7.964;2023-05-10T09:11:55;14.70;86.80
4840;DHT22;2434;48.486;7.964;2023-05-10T09:14:24;14.70;87.80
4840;DHT22;2434;48.486;7.964;2023-05-10T09:16:54;14.70;86.60
4840;DHT22;2434;48.486;7.964;2023-05-10T09:19:23;14.70;87.10
4840;DHT22;2434;48.486;7.964;2023-05-10T09:21:52;14.80;86.80
4840;DHT22;2434;48.486;7.964;2023-05-10T09:24:25;14.80;86.40
4840;DHT22;2434;48.486;7.964;2023-05-10T09:26:53;14.80;86.70
4840;DHT22;2434;48.486;7.964;2023-05-10T09:29:24;14.90;88.10
4840;DHT22;2434;48.486;7.964;2023-05-10T09:31:53;14.90;89.00
4840;DHT22;2434;48.486;7.964;2023-05-10T09:34:29;14.90;90.10
4840;DHT22;2434;48.486;7.964;2023-05-10T09:36:58;15.00;89.10
4840;DHT22;2434;48.486;7.964;2023-05-10T09:39:32;15.00;87.70
4840;DHT22;2434;48.486;7.964;2023-05-10T09:42:03;15.00;88.10
4840;DHT22;2434;48.486;7.964;2023-05-10T09:44:32;15.00;87.70
4840;DHT22;2434;48.486;7.964;2023-05-10T09:47:00;15.00;87.80
4840;DHT22;2434;48.486;7.964;2023-05-10T09:49:30;15.00;89.00
4840;DHT22;2434;48.486;7.964;2023-05-10T09:52:03;15.00;88.20
4840;DHT22;2434;48.486;7.964;2023-05-10T09:54:33;15.00;86.90
4840;DHT22;2434;48.486;7.964;2023-05-10T09:57:02;15.00;81.40
4840;DHT22;2434;48.486;7.964;2023-05-10T09:59:33;15.00;81.50
4840;DHT22;2434;48.486;7.964;2023-05-10T10:02:02;14.90;77.80
4840;DHT22;2434;48.486;7.964;2023-05-10T10:04:32;15.00;79.90
4840;DHT22;2434;48.486;7.964;2023-05-10T10:07:05;14.90;80.90
4840;DHT22;2434;48.486;7.964;2023-05-10T10:09:34;15.00;81.60
4840;DHT22;2434;48.486;7.964;2023-05-10T10:12:03;15.00;84.30
4840;DHT22;2434;48.486;7.964;2023-05-10T10:14:31;15.00;86.30
4840;DHT22;2434;48.486;7.964;2023-05-10T10:17:00;15.00;86.70
4840;DHT22;2434;48.486;7.964;2023-05-10T10:19:34;15.00;85.70
4840;DHT22;2434;48.486;7.964;2023-05-10T10:22:04;15.00;85.50
4840;DHT22;2434;48.486;7.964;2023-05-10T10:24:32;15.00;83.80
4840;DHT22;2434;48.486;7.964;2023-05-10T10:27:08;15.00;84.90
4840;DHT22;2434;48.486;7.964;2023-05-10T10:29:44;15.10;81.90
4840;DHT22;2434;48.486;7.964;2023-05-10T10:32:24;15.10;82.90
4840;DHT22;2434;48.486;7.964;2023-05-10T10:34:55;15.10;86.60
4840;DHT22;2434;48.486;7.964;2023-05-10T10:37:42;15.10;82.00
4840;DHT22;2434;48.486;7.964;2023-05-10T10:40:24;15.10;73.50
4840;DHT22;2434;48.486;7.964;2023-05-10T10:42:53;15.20;76.00
4840;DHT22;2434;48.486;7.964;2023-05-10T10:45:23;15.20;79.90
4840;DHT22;2434;48.486;7.964;2023-05-10T10:48:20;15.20;78.70
4840;DHT22;2434;48.486;7.964;2023-05-10T10:50:56;15.30;80.20
4840;DHT22;2434;48.486;7.964;2023-05-10T10:53:26;15.30;72.50
4840;DHT22;2434;48.486;7.964;2023-05-10T10:56:05;15.40;72.70
4840;DHT22;2434;48.486;7.964;2023-05-10T10:58:34;15.30;63.80
4840;DHT22;2434;48.486;7.964;2023-05-10T11:01:11;15.40;63.20
4840;DHT22;2434;48.486;7.964;2023-05-10T11:03:40;15.30;65.20
4840;DHT22;2434;48.486;7.964;2023-05-10T11:06:09;15.40;62.20
4840;DHT22;2434;48.486;7.964;2023-05-10T11:08:42;15.40;63.50
4840;DHT22;2434;48.486;7.964;2023-05-10T11:11:15;15.40;61.80
4840;DHT22;2434;48.486;7.964;2023-05-10T11:13:44;15.40;61.60
4840;DHT22;2434;48.486;7.964;2023-05-10T11:16:18;15.40;61.50
4840;DHT22;2434;48.486;7.964;2023-05-10T11:18:56;15.40;62.10
4840;DHT22;2434;48.486;7.964;2023-05-10T11:21:26;15.40;62.50
4840;DHT22;2434;48.486;7.964;2023-05-10T11:23:56;15.40;64.60
4840;DHT22;2434;48.486;7.964;2023-05-10T11:26:25;15.40;63.20
4840;DHT22;2434;48.486;7.964;2023-05-10T11:28:54;15.40;60.10
4840;DHT22;2434;48.486;7.964;2023-05-10T11:31:23;15.50;61.80
4840;DHT22;2434;48.486;7.964;2023-05-10T11:33:55;15.50;57.50
4840;DHT22;2434;48.486;7.964;2023-05-10T11:36:27;15.60;55.20
4840;DHT22;2434;48.486;7.964;2023-05-10T11:38:56;15.60;57.20
4840;DHT22;2434;48.486;7.964;2023-05-10T11:41:25;15.60;55.10
4840;DHT22;2434;48.486;7.964;2023-05-10T11:43:55;15.70;58.50
4840;DHT22;2434;48.486;7.964;2023-05-10T11:46:24;15.70;53.20
4840;DHT22;2434;48.486;7.964;2023-05-10T11:48:55;15.70;52.50
4840;DHT22;2434;48.486;7.964;2023-05-10T11:51:26;15.70;53.20
4840;DHT22;2434;48.486;7.964;2023-05-10T11:53:55;15.70;51.30
4840;DHT22;2434;48.486;7.964;2023-05-10T11:56:24;15.80;51.90
4840;DHT22;2434;48.486;7.964;2023-05-10T11:58:54;15.90;52.40
4840;DHT22;2434;48.486;7.964;2023-05-10T12:01:24;15.80;51.00
4840;DHT22;2434;48.486;7.964;2023-05-10T12:03:54;15.90;50.00
4840;DHT22;2434;48.486;7.964;2023-05-10T12:06:29;15.90;52.40
4840;DHT22;2434;48.486;7.964;2023-05-10T12:08:59;15.90;51.30
4840;DHT22;2434;48.486;7.964;2023-05-10T12:11:28;16.00;51.10
4840;DHT22;2434;48.486;7.964;2023-05-10T12:13:57;16.10;48.80
4840;DHT22;2434;48.486;7.964;2023-05-10T12:16:28;16.10;49.80
4840;DHT22;2434;48.486;7.964;2023-05-10T12:18:58;16.10;48.90
4840;DHT22;2434;48.486;7.964;2023-05-10T12:21:29;16.20;49.50
4840;DHT22;2434;48.486;7.964;2023-05-10T12:24:01;16.20;51.60
4840;DHT22;2434;48.486;7.964;2023-05-10T12:26:29;16.20;48.50
4840;DHT22;2434;48.486;7.964;2023-05-10T12:29:12;16.30;48.00
4840;DHT22;2434;48.486;7.964;2023-05-10T12:31:54;16.20;47.20
4840;DHT22;2434;48.486;7.964;2023-05-10T12:34:24;16.30;46.00
4840;DHT22;2434;48.486;7.964;2023-05-10T12:36:54;16.30;48.40
4840;DHT22;2434;48.486;7.964;2023-05-10T12:39:23;16.30;48.60
4840;DHT22;2434;48.486;7.964;2023-05-10T12:41:51;16.30;48.30
4840;DHT22;2434;48.486;7.964;2023-05-10T12:44:19;16.30;48.60
4840;DHT22;2434;48.486;7.964;2023-05-10T12:46:48;16.40;52.40
4840;DHT22;2434;48.486;7.964;2023-05-10T12:49:16;16.40;50.70
4840;DHT22;2434;48.486;7.964;2023-05-10T12:51:45;16.40;48.80
4840;DHT22;2434;48.486;7.964;2023-05-10T12:54:15;16.40;47.20
4840;DHT22;2434;48.486;7.964;2023-05-10T12:56:43;16.30;47.50
4840;DHT22;2434;48.486;7.964;2023-05-10T12:59:11;16.30;48.80
4840;DHT22;2434;48.486;7.964;2023-05-10T13:01:39;16.30;48.30
4840;DHT22;2434;48.486;7.964;2023-05-10T13:04:08;16.30;47.60
4840;DHT22;2434;48.486;7.964;2023-05-10T13:06:36;16.30;47.60
4840;DHT22;2434;48.486;7.964;2023-05-10T13:09:04;16.40;49.20
4840;DHT22;2434;48.486;7.964;2023-05-10T13:11:34;16.40;46.70
4840;DHT22;2434;48.486;7.964;2023-05-10T13:14:02;16.40;45.50
4840;DHT22;2434;48.486;7.964;2023-05-10T13:16:31;16.40;47.20
4840;DHT22;2434;48.486;7.964;2023-05-10T13:18:59;16.40;46.00
4840;DHT22;2434;48.486;7.964;2023-05-10T13:21:28;16.40;48.10
4840;DHT22;2434;48.486;7.964;2023-05-10T13:23:56;16.50;44.90
4840;DHT22;2434;48.486;7.964;2023-05-10T13:26:24;16.50;47.00
4840;DHT22;2434;48.486;7.964;2023-05-10T13:28:54;16.60;47.20
4840;DHT22;2434;48.486;7.964;2023-05-10T13:31:23;16.60;46.00
4840;DHT22;2434;48.486;7.964;2023-05-10T13:33:52;16.70;46.40
4840;DHT22;2434;48.486;7.964;2023-05-10T13:36:20;16.70;45.30
4840;DHT22;2434;48.486;7.964;2023-05-10T13:38:49;16.70;43.80
4840;DHT22;2434;48.486;7.964;2023-05-10T13:41:17;16.70;43.40
4840;DHT22;2434;48.486;7.964;2023-05-10T13:43:46;16.70;43.50
4840;DHT22;2434;48.486;7.964;2023-05-10T13:46:17;16.70;43.00
4840;DHT22;2434;48.486;7.964;2023-05-10T13:48:45;16.70;44.50
4840;DHT22;2434;48.486;7.964;2023-05-10T13:51:14;16.80;47.00
4840;DHT22;2434;48.486;7.964;2023-05-10T13:53:42;16.80;47.50
4840;DHT22;2434;48.486;7.964;2023-05-10T13:56:10;16.90;48.10
4840;DHT22;2434;48.486;7.964;2023-05-10T13:58:39;16.90;46.80
4840;DHT22;2434;48.486;7.964;2023-05-10T14:01:07;17.00;48.20
4840;DHT22;2434;48.486;7.964;2023-05-10T14:03:36;17.20;46.90
4840;DHT22;2434;48.486;7.964;2023-05-10T14:06:05;17.20;44.20
4840;DHT22;2434;48.486;7.964;2023-05-10T14:08:34;17.20;44.40
4840;DHT22;2434;48.486;7.964;2023-05-10T14:11:02;17.20;42.60
4840;DHT22;2434;48.486;7.964;2023-05-10T14:13:31;17.20;44.10
4840;DHT22;2434;48.486;7.964;2023-05-10T14:15:59;17.20;44.20
4840;DHT22;2434;48.486;7.964;2023-05-10T14:18:28;17.20;46.10
4840;DHT22;2434;48.486;7.964;2023-05-10T14:20:58;17.20;44.40
4840;DHT22;2434;48.486;7.964;2023-05-10T14:23:26;17.20;46.40
4840;DHT22;2434;48.486;7.964;2023-05-10T14:25:55;17.20;46.60
4840;DHT22;2434;48.486;7.964;2023-05-10T14:28:24;17.20;47.30
4840;DHT22;2434;48.486;7.964;2023-05-10T14:30:52;17.20;46.70
4840;DHT22;2434;48.486;7.964;2023-05-10T14:33:20;17.20;46.20
4840;DHT22;2434;48.486;7.964;2023-05-10T14:35:49;17.20;46.50
4840;DHT22;2434;48.486;7.964;2023-05-10T14:38:18;17.20;48.60
4840;DHT22;2434;48.486;7.964;2023-05-10T14:40:46;17.20;45.10
4840;DHT22;2434;48.486;7.964;2023-05-10T14:43:15;17.20;43.50
4840;DHT22;2434;48.486;7.964;2023-05-10T14:45:43;17.20;45.20
4840;DHT22;2434;48.486;7.964;2023-05-10T14:48:11;17.30;51.80
4840;DHT22;2434;48.486;7.964;2023-05-10T14:50:42;17.30;52.70
4840;DHT22;2434;48.486;7.964;2023-05-10T14:53:10;17.30;52.90
4840;DHT22;2434;48.486;7.964;2023-05-10T14:55:40;17.30;50.80
4840;DHT22;2434;48.486;7.964;2023-05-10T14:58:08;17.30;52.60
4840;DHT22;2434;48.486;7.964;2023-05-10T15:00:37;17.20;48.40
4840;DHT22;2434;48.486;7.964;2023-05-10T15:03:08;17.20;48.80
4840;DHT22;2434;48.486;7.964;2023-05-10T15:05:36;17.10;49.00
4840;DHT22;2434;48.486;7.964;2023-05-10T15:08:05;16.90;49.50
4840;DHT22;2434;48.486;7.964;2023-05-10T15:10:33;16.70;55.30
4840;DHT22;2434;48.486;7.964;2023-05-10T15:13:03;16.50;59.90
4840;DHT22;2434;48.486;7.964;2023-05-10T15:15:32;16.30;59.70
4840;DHT22;2434;48.486;7.964;2023-05-10T15:18:00;16.10;64.60
4840;DHT22;2434;48.486;7.964;2023-05-10T15:20:28;16.00;63.80
4840;DHT22;2434;48.486;7.964;2023-05-10T15:22:57;16.00;64.50
4840;DHT22;2434;48.486;7.964;2023-05-10T15:25:25;16.00;66.00
4840;DHT22;2434;48.486;7.964;2023-05-10T15:27:53;15.90;67.60
4840;DHT22;2434;48.486;7.964;2023-05-10T15:30:22;16.00;67.20
4840;DHT22;2434;48.486;7.964;2023-05-10T15:32:51;16.00;65.20
4840;DHT22;2434;48.486;7.964;2023-05-10T15:35:19;16.00;71.70
4840;DHT22;2434;48.486;7.964;2023-05-10T15:37:48;15.90;71.10
4840;DHT22;2434;48.486;7.964;2023-05-10T15:40:16;15.90;71.50
4840;DHT22;2434;48.486;7.964;2023-05-10T15:42:45;15.90;72.30
4840;DHT22;2434;48.486;7.964;2023-05-10T15:45:13;15.90;72.70
4840;DHT22;2434;48.486;7.964;2023-05-10T15:47:45;15.80;71.80
4840;DHT22;2434;48.486;7.964;2023-05-10T15:50:14;15.80;70.10
4840;DHT22;2434;48.486;7.964;2023-05-10T15:52:42;15.70;68.80
4840;DHT22;2434;48.486;7.964;2023-05-10T15:55:11;15.60;68.90
4840;DHT22;2434;48.486;7.964;2023-05-10T15:57:40;15.60;66.80
4840;DHT22;2434;48.486;7.964;2023-05-10T16:00:10;15.60;67.80
4840;DHT22;2434;48.486;7.964;2023-05-10T16:02:38;15.60;69.10
4840;DHT22;2434;48.486;7.964;2023-05-10T16:05:09;15.60;69.50
4840;DHT22;2434;48.486;7.964;2023-05-10T16:07:38;15.70;71.90
4840;DHT22;2434;48.486;7.964;2023-05-10T16:10:09;15.60;71.70
4840;DHT22;2434;48.486;7.964;2023-05-10T16:12:38;15.50;72.70
4840;DHT22;2434;48.486;7.964;2023-05-10T16:15:07;15.60;75.20
4840;DHT22;2434;48.486;7.964;2023-05-10T16:17:35;15.60;71.10
4840;DHT22;2434;48.486;7.964;2023-05-10T16:20:04;15.60;71.60